Salt Wells, Nevada
Current Conditions -  °F | °C
As of 10:56 PM on Wednesday 22 Oct 2014 (Local Time) from KNFL Reporting Station
Clear Clear  
Wind Chill: 46°   Ceiling: Unl
Heat Index: 49°   Visibility: 10mi
Dew Point: 22°   Wind: 7mph
Humidity: 35%   Direction: 160°SSE
Pressure: 30.06"   Gusts: NA
Location:  39.5809°N, 118.333°W
Report Text: KNFL 230556Z AUTO 16006KT 10SM CLR 09/M06 A3006 RMK AO2 SLP148 T00941056 10183 20083 50006
Loading
Personal Weather Stations






























Interactive Weather Map New forecast layout! Learn more

10-Day Weather Forecast

Advertisements
Track Severe Weather on mobile